Aeroporto :
LOGIN :

Iscrizione | Disclaimer

   EN    FR    IT 

 










Sommario :    VFR   VFR Marginale   IFR   IFR Intensivo   IFR Molto Intensivo
Visibilità : 
Base nubi : 
>= 8 km
>= 3000ft
5 / 8 km
1000 / 3000 ft
1500m / 5 km
500 / 1000 ft
800 / 1500m
200 / 500 ft
< 800m
< 200 ft
Simboli :   Temporali  Nebbia  Neve Forte  Precipitazioni Forti  Vento > 20 kt
SIGMETs :   Varie  Temporali  Ghiacco  Turbolenza  Onda orograficha  Ceneri Vulcaniche






- Altitudine del aeroporto : 100 ft


EBDT - Schaffen

ULTIMO METAR :
  • 181155Z AUTO 14006KT 9999 FEW043/// 29/19 Q1011 BLU

METARs OBSOLETI :
  • 181151Z AUTO 15004KT 9999 FEW043/// SCT140/// 30/20 Q1011 BLU
  • 181140Z AUTO 16004KT 5000 FEW140/// 29/20 Q1011 WHT
  • 181125Z AUTO 16005KT 9999 FEW150/// 29/19 Q1011 BLU
  • 181055Z AUTO 16004KT 9999 NCD 29/20 Q1011 BLU
  • 181025Z AUTO 13005KT 9999 FEW100/// 28/19 Q1012 BLU
  • 180955Z AUTO 13006KT 9999 FEW200/// 27/19 Q1012 BLU
  • 180925Z AUTO 09006KT 9999 FEW100/// 26/20 Q1012 BLU

TAF TAF EBDT
Valido dal 18 a 13 ore il 18 a 22 ore UTC


181141Z 1813/1822 15005KT 9999 FEW025 SCT100
PROB40
TEMPO 1813/1820 18015G40KT 300 TSRA SCT007 BKN017CB



MetMap, La meteo Aeronautica in un colpo d'occhio ! - Copyright ORBIFLY Dicembre 2007 - Disclaimer

ORBIFLY MET'MAP TEAM :

Programmazione e sviluppo : Alexandra Zaïnal
Concezione : Baudouin d'Aumeries
Aiuto per la programmazione : Marc-Olivier Méhu
Supporto tecnico e logistico : Manuel Goepfert
Aiuto per la traduzione : Arnaldo La Scala

Contatto : metmap@orbifly.com




FONTI E CREDITI :

   NOAA